Portada
METAR-TAF:

METAR-TAF

Aeroports :

Effingham County Memorial Airport

Effingham, Illinois, Estats Units d'Amèrica

latitud: 39-04-14N, longitud: 088-32-00W, altitud: 179 m

Observació

L'informe es va fer fa 20 minuts, a les 11:55 UTC
Vent 10 kt del Oest amb ràfegues de 14 kt
Temperatura 19°C
Humitat 83%
Pressió 1011 hPa
Visibilitat: 16.1 km
Núvols disperses a una alçada de 1400 ft
Cel cobert a una alçada de 2100 ft

METAR: K1H2 221155Z AUTO 28010G14KT 10SM SCT014 OVC021 19/16 A2985 RMK AO2 60002 70040 T01930164 10220 20193

Hora: 07:15 (12:15 UTC)


TAF: manca

Observacions i pronòstics meteorològics de més de 4000 aeroports (METAR i TAF).

Les estacions disponibles són els punts grocs i vermells al mapa.

Posi el ratolí al punt desitjat per veure el nom de l'estació.

Feu clic per veure les observacions i els pronòstics meteorològics.

Per canviar el mapa: feu clic els botons verds amb una creu de color negre per apropar; al botó verd amb un guió per allunyar la imatge; o en les fletxes verdes per a mapes adjacents.


METAR-TAF: